Time;durP1;ratioP1;P1;durP2;ratioP2;P2;SDS_P1;SDS_P2;PMS_P1;PMS_P2;Temp;Humidity;BMP_temperature;BMP_pressure;BME280_temperature;BME280_humidity;BME280_pressure;Samples;Min_cycle;Max_cycle;Signal;HPM_P1;HPM_P2
2021/06/06 00:00:17;;;;;;;;;;;;;;;22.98;49.00;102261.03;2204838;39;113708;-54
2021/06/06 00:01:49;;;;;;;;;;;;;;;22.98;49.26;102258.22;2205009;39;114032;-55
2021/06/06 00:03:25;;;;;;;;;;;;;;;22.98;48.80;102256.22;2206936;39;114120;-53
2021/06/06 00:04:57;;;;;;;;;;;;;;;22.99;48.80;102257.03;2196341;39;114166;-54
2021/06/06 00:06:30;;;;;;;;;;;;;;;23.00;49.06;102255.91;2203447;39;114824;-54
2021/06/06 00:08:02;;;;;;;;;;;;;;;22.99;48.92;102255.06;2193098;39;113967;-53
2021/06/06 00:09:34;;;;;;;;;;;;;;;23.00;48.77;102259.59;2199721;39;115148;-53
2021/06/06 00:11:06;;;;;;;;;;;;;;;23.02;48.75;102260.16;2197785;39;114820;-53
2021/06/06 00:12:38;;;;;;;;;;;;;;;23.00;48.92;102262.41;2204079;39;114774;-53
2021/06/06 00:14:12;;;;;;;;;;;;;;;23.02;48.71;102262.13;2202927;39;115193;-54
2021/06/06 00:15:44;;;;;;;;;;;;;;;23.01;49.01;102266.06;2196796;39;114148;-53
2021/06/06 00:17:16;;;;;;;;;;;;;;;23.01;48.84;102257.59;2197703;39;115122;-53
2021/06/06 00:18:49;;;;;;;;;;;;;;;23.02;48.98;102260.16;2200803;39;113851;-54
2021/06/06 00:20:21;;;;;;;;;;;;;;;23.01;49.00;102261.28;2199580;39;114391;-53
2021/06/06 00:21:54;;;;;;;;;;;;;;;23.02;48.95;102262.13;2194886;39;115272;-54
2021/06/06 00:23:26;;;;;;;;;;;;;;;23.01;49.17;102261.28;2196296;39;115172;-53
2021/06/06 00:24:58;;;;;;;;;;;;;;;23.02;49.00;102256.47;2198902;39;115017;-53
2021/06/06 00:26:30;;;;;;;;;;;;;;;23.01;49.35;102252.81;2194727;39;115559;-53
2021/06/06 00:28:01;;;;;;;;;;;;;;;23.02;49.20;102256.47;2202998;39;115545;-53
2021/06/06 00:29:33;;;;;;;;;;;;;;;23.02;49.15;102260.16;2196092;39;115576;-52
2021/06/06 00:31:07;;;;;;;;;;;;;;;23.03;49.25;102255.34;2195472;39;115544;-53
2021/06/06 00:32:39;;;;;;;;;;;;;;;23.03;49.33;102261.81;2195704;39;115475;-53
2021/06/06 00:34:11;;;;;;;;;;;;;;;23.01;49.53;102268.88;2201468;39;115515;-53
2021/06/06 00:35:43;;;;;;;;;;;;;;;23.03;49.67;102266.63;2196699;39;115464;-53
2021/06/06 00:37:15;;;;;;;;;;;;;;;23.01;49.59;102264.09;2194712;39;114533;-54
2021/06/06 00:38:46;;;;;;;;;;;;;;;23.02;49.42;102259.28;2195041;39;116084;-54
2021/06/06 00:40:21;;;;;;;;;;;;;;;23.02;49.74;102260.16;2203804;39;115491;-53
2021/06/06 00:41:54;;;;;;;;;;;;;;;23.03;49.54;102266.63;2196811;39;116266;-53
2021/06/06 00:43:27;;;;;;;;;;;;;;;23.04;50.18;102265.47;2193701;39;116533;-53
2021/06/06 00:44:59;;;;;;;;;;;;;;;23.06;49.83;102266.03;2203981;39;115527;-53
2021/06/06 00:46:30;;;;;;;;;;;;;;;23.04;49.79;102266.31;2207104;39;115983;-53
2021/06/06 00:48:04;;;;;;;;;;;;;;;23.04;49.56;102269.13;2204474;39;113807;-53
2021/06/06 00:49:35;;;;;;;;;;;;;;;23.04;49.50;102262.66;2206294;39;113777;-52
2021/06/06 00:51:15;;;;;;;;;;;;;;;23.06;49.61;102268.84;2203946;39;114088;-53
2021/06/06 00:52:49;;;;;;;;;;;;;;;23.07;49.66;102270.53;2199694;39;113719;-53
2021/06/06 00:54:25;;;;;;;;;;;;;;;23.07;49.88;102272.50;2202265;39;114069;-54
2021/06/06 00:55:57;;;;;;;;;;;;;;;23.05;49.80;102276.47;2196531;39;114287;-53
2021/06/06 00:57:30;;;;;;;;;;;;;;;23.08;49.73;102274.22;2202341;39;113757;-53
2021/06/06 00:59:02;;;;;;;;;;;;;;;23.07;49.77;102276.19;2206089;39;114011;-53
2021/06/06 01:00:37;;;;;;;;;;;;;;;23.07;49.94;102269.69;2197588;39;113999;-54
2021/06/06 01:02:09;;;;;;;;;;;;;;;23.08;49.79;102271.38;2192889;39;114133;-53
2021/06/06 01:03:41;;;;;;;;;;;;;;;23.09;50.06;102273.88;2201109;39;113994;-53
2021/06/06 01:05:23;;;;;;;;;;;;;;;23.09;49.39;102268.25;2204277;39;115833;-53
2021/06/06 01:06:55;;;;;;;;;;;;;;;23.08;49.29;102277.03;2197310;39;114035;-52
2021/06/06 01:08:28;;;;;;;;;;;;;;;23.07;49.38;102272.50;2202838;39;113724;-53
2021/06/06 01:10:00;;;;;;;;;;;;;;;23.07;49.54;102280.97;2204510;39;114315;-53
2021/06/06 01:11:35;;;;;;;;;;;;;;;23.06;49.58;102288.59;2203784;39;113986;-53
2021/06/06 01:13:10;;;;;;;;;;;;;;;23.05;50.00;102276.47;2205226;39;115940;-53
2021/06/06 01:14:44;;;;;;;;;;;;;;;23.08;49.99;102277.84;2197074;39;114784;-54
2021/06/06 01:16:18;;;;;;;;;;;;;;;23.07;50.27;102280.97;2194968;39;114777;-52
2021/06/06 01:17:53;;;;;;;;;;;;;;;23.09;50.40;102287.97;2193973;39;114042;-59
2021/06/06 01:19:26;;;;;;;;;;;;;;;23.10;50.61;102284.03;2200629;39;115369;-53
2021/06/06 01:20:58;;;;;;;;;;;;;;;23.10;50.70;102284.03;2196517;39;115006;-53
2021/06/06 01:22:31;;;;;;;;;;;;;;;23.13;50.65;102293.88;2200309;39;114047;-52
2021/06/06 01:24:10;;;;;;;;;;;;;;;23.15;50.78;102285.97;2198962;39;113834;-53
2021/06/06 01:25:44;;;;;;;;;;;;;;;23.15;50.94;102285.97;2197050;39;114681;-54
2021/06/06 01:27:19;;;;;;;;;;;;;;;23.13;51.18;102286.25;2197585;39;115087;-53
2021/06/06 01:28:55;;;;;;;;;;;;;;;23.13;50.58;102289.09;2203312;39;114837;-53
2021/06/06 01:30:30;;;;;;;;;;;;;;;23.12;50.73;102290.25;2203422;39;114840;-54
2021/06/06 01:32:06;;;;;;;;;;;;;;;23.12;50.64;102292.22;2202153;39;115168;-53
2021/06/06 01:33:43;;;;;;;;;;;;;;;23.14;50.60;102292.75;2200720;39;115706;-54
2021/06/06 01:35:18;;;;;;;;;;;;;;;23.11;51.08;102285.72;2200565;39;115628;-54
2021/06/06 01:36:52;;;;;;;;;;;;;;;23.11;51.29;102291.38;2202501;39;115491;-52
2021/06/06 01:38:27;;;;;;;;;;;;;;;23.11;50.81;102290.53;2204899;39;115435;-54
2021/06/06 01:40:01;;;;;;;;;;;;;;;23.11;50.58;102282.91;2204281;39;115032;-53
2021/06/06 01:41:36;;;;;;;;;;;;;;;23.12;50.68;102281.78;2201959;39;115709;-54
2021/06/06 01:43:11;;;;;;;;;;;;;;;23.12;50.68;102280.94;2195648;39;115561;-53
2021/06/06 01:44:45;;;;;;;;;;;;;;;23.12;50.90;102275.31;2202667;39;114317;-52
2021/06/06 01:46:22;;;;;;;;;;;;;;;23.10;50.81;102281.22;2203670;39;115671;-53
2021/06/06 01:47:57;;;;;;;;;;;;;;;23.12;50.99;102276.16;2205389;39;115851;-53
2021/06/06 01:49:31;;;;;;;;;;;;;;;23.13;50.87;102277.81;2206371;39;115067;-54
2021/06/06 01:51:05;;;;;;;;;;;;;;;23.12;50.89;102275.31;2201390;39;115475;-53
2021/06/06 01:52:38;;;;;;;;;;;;;;;23.13;51.21;102268.50;2197009;39;114876;-52
2021/06/06 01:54:11;;;;;;;;;;;;;;;23.12;51.12;102269.66;2207076;39;115537;-53
2021/06/06 01:55:46;;;;;;;;;;;;;;;23.12;51.03;102266.84;2197257;39;113870;-54
2021/06/06 01:57:19;;;;;;;;;;;;;;;23.10;51.63;102264.31;2197939;39;114085;-53
2021/06/06 01:58:54;;;;;;;;;;;;;;;23.12;51.41;102272.47;2203616;39;113719;-53
2021/06/06 02:00:29;;;;;;;;;;;;;;;23.12;51.02;102267.69;2205292;39;113811;-53
2021/06/06 02:02:01;;;;;;;;;;;;;;;23.11;51.34;102263.19;2205372;39;113767;-53
2021/06/06 02:03:34;;;;;;;;;;;;;;;23.12;51.26;102270.50;2198367;39;113696;-52
2021/06/06 02:05:08;;;;;;;;;;;;;;;23.13;51.21;102263.69;2194289;39;113894;-56
2021/06/06 02:06:43;;;;;;;;;;;;;;;23.11;51.03;102257.53;2201529;39;113984;-53
2021/06/06 02:08:16;;;;;;;;;;;;;;;23.12;51.05;102264.88;2204811;39;113791;-53
2021/06/06 02:09:50;;;;;;;;;;;;;;;23.14;51.30;102256.09;2205000;39;113803;-54
2021/06/06 02:11:25;;;;;;;;;;;;;;;23.13;51.32;102255.25;2204406;39;114161;-53
2021/06/06 02:13:01;;;;;;;;;;;;;;;23.11;51.30;102254.72;2205522;39;113972;-52
2021/06/06 02:14:37;;;;;;;;;;;;;;;23.11;51.29;102249.06;2205940;39;116500;-53
2021/06/06 02:16:10;;;;;;;;;;;;;;;23.11;51.37;102251.91;2200389;39;113627;-52
2021/06/06 02:17:42;;;;;;;;;;;;;;;23.11;51.17;102251.06;2195727;39;113945;-53
2021/06/06 02:19:14;;;;;;;;;;;;;;;23.13;51.41;102260.03;2201824;39;114764;-54
2021/06/06 02:20:48;;;;;;;;;;;;;;;23.13;51.41;102260.03;2203936;39;115371;-53
2021/06/06 02:22:20;;;;;;;;;;;;;;;23.13;51.68;102255.25;2197340;39;113909;-53
2021/06/06 02:23:52;;;;;;;;;;;;;;;23.13;51.55;102251.59;2203285;39;114846;-53
2021/06/06 02:25:25;;;;;;;;;;;;;;;23.14;51.67;102256.94;2195724;39;115188;-53
2021/06/06 02:27:01;;;;;;;;;;;;;;;23.14;51.52;102251.28;2196262;39;115185;-53
2021/06/06 02:28:34;;;;;;;;;;;;;;;23.14;51.79;102254.13;2203203;39;114847;-53
2021/06/06 02:30:09;;;;;;;;;;;;;;;23.13;51.84;102260.88;2207908;39;114821;-53
2021/06/06 02:31:46;;;;;;;;;;;;;;;23.15;51.49;102250.16;2194947;39;113882;-52
2021/06/06 02:33:18;;;;;;;;;;;;;;;23.15;51.71;102258.63;2196227;39;114252;-53
2021/06/06 02:34:53;;;;;;;;;;;;;;;23.16;51.71;102259.47;2200764;39;114838;-53
2021/06/06 02:36:25;;;;;;;;;;;;;;;23.14;52.26;102262.56;2204758;39;114842;-53
2021/06/06 02:37:57;;;;;;;;;;;;;;;23.15;51.73;102255.81;2208200;39;114241;-53
2021/06/06 02:39:34;;;;;;;;;;;;;;;23.14;51.74;102254.13;2203652;39;115824;-53
2021/06/06 02:41:09;;;;;;;;;;;;;;;23.13;52.57;102248.75;2204607;39;115548;-53
2021/06/06 02:42:43;;;;;;;;;;;;;;;23.11;51.99;102246.25;2188046;39;114878;-54
2021/06/06 02:44:18;;;;;;;;;;;;;;;23.12;52.27;102256.41;2192658;39;115647;-53
2021/06/06 02:45:51;;;;;;;;;;;;;;;23.12;51.88;102242.31;2195633;39;115463;-53
2021/06/06 02:47:25;;;;;;;;;;;;;;;23.13;52.13;102248.75;2204062;39;115778;-53
2021/06/06 02:48:59;;;;;;;;;;;;;;;23.14;52.29;102250.44;2204677;39;115873;-56
2021/06/06 02:50:34;;;;;;;;;;;;;;;23.12;52.11;102247.09;2205821;39;115528;-53
2021/06/06 02:52:09;;;;;;;;;;;;;;;23.11;52.06;102245.41;2207652;39;115954;-53
2021/06/06 02:53:50;;;;;;;;;;;;;;;23.11;52.22;102245.41;2204027;39;116036;-53
2021/06/06 02:55:24;;;;;;;;;;;;;;;23.14;52.21;102242.00;2196310;39;115483;-54
2021/06/06 02:56:59;;;;;;;;;;;;;;;23.10;52.61;102244.56;2194993;39;115338;-52
2021/06/06 02:58:35;;;;;;;;;;;;;;;23.13;52.69;102245.94;2194619;39;114671;-53
2021/06/06 03:00:11;;;;;;;;;;;;;;;23.14;52.36;102251.28;2197702;39;115660;-53
2021/06/06 03:01:45;;;;;;;;;;;;;;;23.14;52.49;102242.00;2194201;39;115549;-53
2021/06/06 03:03:20;;;;;;;;;;;;;;;23.13;52.65;102240.31;2199305;39;114108;-53
2021/06/06 03:04:54;;;;;;;;;;;;;;;23.14;52.15;102239.16;2194149;39;113919;-53
2021/06/06 03:06:31;;;;;;;;;;;;;;;23.12;52.47;102231.03;2195074;39;113828;-54
2021/06/06 03:08:04;;;;;;;;;;;;;;;23.14;52.42;102236.34;2201958;39;113945;-53
2021/06/06 03:09:36;;;;;;;;;;;;;;;23.15;52.57;102229.59;2196267;39;113960;-53
2021/06/06 03:11:09;;;;;;;;;;;;;;;23.14;52.13;102228.75;2195456;39;113910;-53
2021/06/06 03:12:42;;;;;;;;;;;;;;;23.15;52.46;102223.94;2195636;39;114021;-53
2021/06/06 03:14:16;;;;;;;;;;;;;;;23.17;52.53;102222.50;2196602;39;113914;-53
2021/06/06 03:15:51;;;;;;;;;;;;;;;23.15;52.59;102224.78;2197678;39;113835;-52
2021/06/06 03:17:25;;;;;;;;;;;;;;;23.16;52.35;102232.13;2203040;39;113917;-53
2021/06/06 03:18:57;;;;;;;;;;;;;;;23.13;52.47;102234.66;2203564;39;113768;-53
2021/06/06 03:20:32;;;;;;;;;;;;;;;23.12;52.46;102230.19;2203822;39;113789;-53
2021/06/06 03:22:06;;;;;;;;;;;;;;;23.12;53.26;102228.22;2203849;39;113964;-53
2021/06/06 03:23:40;;;;;;;;;;;;;;;23.14;53.52;102233.53;2208325;39;113845;-54
2021/06/06 03:25:18;;;;;;;;;;;;;;;23.14;53.14;102230.72;2204263;39;114160;-53
2021/06/06 03:26:51;;;;;;;;;;;;;;;23.13;53.34;102232.69;2206094;39;115728;-53
2021/06/06 03:28:26;;;;;;;;;;;;;;;23.15;53.07;102232.41;2204519;39;114823;-53
2021/06/06 03:30:01;;;;;;;;;;;;;;;23.16;52.57;102234.94;2197311;39;113752;-53
2021/06/06 03:31:36;;;;;;;;;;;;;;;23.16;52.79;102234.09;2203599;39;114844;-53
2021/06/06 03:33:11;;;;;;;;;;;;;;;23.15;53.17;102235.22;2194264;39;114849;-54
2021/06/06 03:34:43;;;;;;;;;;;;;;;23.14;53.23;102234.38;2199614;39;114666;-53
2021/06/06 03:36:18;;;;;;;;;;;;;;;23.14;52.80;102233.53;2205691;39;114924;-54
2021/06/06 03:37:50;;;;;;;;;;;;;;;23.15;52.65;102229.59;2199796;39;114225;-54
2021/06/06 03:39:27;;;;;;;;;;;;;;;23.16;53.06;102232.13;2202330;39;115135;-55
2021/06/06 03:40:58;;;;;;;;;;;;;;;23.16;53.23;102229.31;2200179;39;114046;-53
2021/06/06 03:42:30;;;;;;;;;;;;;;;23.16;52.76;102232.13;2198355;39;114737;-53
2021/06/06 03:44:03;;;;;;;;;;;;;;;23.15;52.85;102229.59;2204900;39;114936;-56
2021/06/06 03:45:35;;;;;;;;;;;;;;;23.16;52.39;102228.47;2201642;39;115680;-53
2021/06/06 03:47:07;;;;;;;;;;;;;;;23.17;52.93;102232.97;2196081;39;114525;-53
2021/06/06 03:48:40;;;;;;;;;;;;;;;23.18;52.84;102221.38;2202618;39;116012;-52
2021/06/06 03:50:14;;;;;;;;;;;;;;;23.15;52.99;102230.44;2204111;39;115444;-54
2021/06/06 03:51:47;;;;;;;;;;;;;;;23.16;52.79;102222.81;2194233;39;115536;-53
2021/06/06 03:53:19;;;;;;;;;;;;;;;23.16;52.79;102226.47;2195145;39;114534;-52
2021/06/06 03:54:53;;;;;;;;;;;;;;;23.17;52.82;102228.13;2203764;39;114884;-53
2021/06/06 03:56:25;;;;;;;;;;;;;;;23.20;52.61;102227.56;2208256;39;115925;-52
2021/06/06 03:57:57;;;;;;;;;;;;;;;23.16;52.47;102226.47;2207198;39;114535;-54
2021/06/06 03:59:30;;;;;;;;;;;;;;;23.22;52.34;102233.75;2206282;39;115696;-54
2021/06/06 04:01:02;;;;;;;;;;;;;;;23.20;52.26;102227.56;2206442;39;116003;-53
2021/06/06 04:02:34;;;;;;;;;;;;;;;23.22;52.10;102230.06;2199034;39;115640;-53
2021/06/06 04:04:06;;;;;;;;;;;;;;;23.18;52.20;102226.16;2205218;39;115738;-53
2021/06/06 04:05:38;;;;;;;;;;;;;;;23.17;52.47;102222.50;2207193;39;115552;-53
2021/06/06 04:07:11;;;;;;;;;;;;;;;23.15;52.34;102219.16;2201158;39;114594;-53
2021/06/06 04:08:43;;;;;;;;;;;;;;;23.17;52.97;102218.88;2202576;39;114266;-53
2021/06/06 04:10:15;;;;;;;;;;;;;;;23.18;52.46;102223.34;2207190;39;113837;-54
2021/06/06 04:11:47;;;;;;;;;;;;;;;23.19;52.53;102220.25;2195166;39;114850;-53
2021/06/06 04:13:19;;;;;;;;;;;;;;;23.18;52.77;102218.56;2204104;39;114166;-53
2021/06/06 04:14:51;;;;;;;;;;;;;;;23.20;52.40;102227.56;2203523;39;113859;-56
2021/06/06 04:16:22;;;;;;;;;;;;;;;23.15;52.47;102227.59;2204030;39;113899;-53
2021/06/06 04:17:54;;;;;;;;;;;;;;;23.17;52.75;102222.50;2208013;39;114133;-55
2021/06/06 04:19:27;;;;;;;;;;;;;;;23.16;52.25;102225.63;2199646;39;113797;-53
2021/06/06 04:21:00;;;;;;;;;;;;;;;23.16;52.32;102236.91;2201173;39;114205;-54
2021/06/06 04:22:32;;;;;;;;;;;;;;;23.18;52.33;102224.19;2207334;39;113779;-54
2021/06/06 04:24:05;;;;;;;;;;;;;;;23.22;52.01;102232.88;2202527;39;114131;-53
2021/06/06 04:25:36;;;;;;;;;;;;;;;23.16;52.46;102229.31;2204372;39;114027;-54
2021/06/06 04:27:08;;;;;;;;;;;;;;;23.18;52.13;102223.34;2208221;39;113732;-53
2021/06/06 04:28:40;;;;;;;;;;;;;;;23.22;51.98;102221.63;2205831;39;113705;-54
2021/06/06 04:30:13;;;;;;;;;;;;;;;23.20;52.07;102227.56;2201541;39;113866;-53
2021/06/06 04:31:46;;;;;;;;;;;;;;;23.18;52.46;102220.53;2203612;39;114053;-54
2021/06/06 04:33:18;;;;;;;;;;;;;;;23.20;52.15;102224.75;2193975;39;115252;-54
2021/06/06 04:34:50;;;;;;;;;;;;;;;23.24;51.96;102217.38;2198663;39;114793;-54
2021/06/06 04:36:22;;;;;;;;;;;;;;;23.20;52.28;102221.94;2204509;39;114750;-54
2021/06/06 04:37:53;;;;;;;;;;;;;;;23.20;52.06;102216.28;2205037;39;114842;-53
2021/06/06 04:39:25;;;;;;;;;;;;;;;23.19;52.30;102210.94;2203626;39;114348;-52
2021/06/06 04:40:59;;;;;;;;;;;;;;;23.19;52.11;102213.75;2198063;39;115606;-53
2021/06/06 04:42:31;;;;;;;;;;;;;;;23.19;51.90;102213.75;2197432;39;114808;-53
2021/06/06 04:44:02;;;;;;;;;;;;;;;23.19;52.08;102214.59;2201965;39;114758;-54
2021/06/06 04:45:34;;;;;;;;;;;;;;;23.18;52.25;102218.56;2202812;39;115129;-53
2021/06/06 04:47:08;;;;;;;;;;;;;;;23.20;52.00;102216.28;2208686;39;115263;-54
2021/06/06 04:48:41;;;;;;;;;;;;;;;23.18;52.05;102207.28;2203627;39;115830;-53
2021/06/06 04:50:14;;;;;;;;;;;;;;;23.18;51.87;102210.09;2202626;39;115127;-53
2021/06/06 04:51:46;;;;;;;;;;;;;;;23.14;52.49;102209.00;2197370;39;114831;-52
2021/06/06 04:53:18;;;;;;;;;;;;;;;23.14;52.67;102216.63;2199358;39;115778;-53
2021/06/06 04:54:50;;;;;;;;;;;;;;;23.16;52.23;102212.38;2203395;39;115466;-53
2021/06/06 04:56:23;;;;;;;;;;;;;;;23.18;52.37;102215.72;2199116;39;115492;-54
2021/06/06 04:57:55;;;;;;;;;;;;;;;23.15;52.35;102216.34;2194131;39;115626;-53
2021/06/06 04:59:28;;;;;;;;;;;;;;;23.18;52.28;102217.72;2195777;39;115537;-52
2021/06/06 05:00:59;;;;;;;;;;;;;;;23.15;52.41;102213.50;2204548;39;115705;-53
2021/06/06 05:02:31;;;;;;;;;;;;;;;23.17;52.42;102216.84;2203267;39;115795;-54
2021/06/06 05:04:03;;;;;;;;;;;;;;;23.17;52.58;102216.84;2204642;39;115920;-53
2021/06/06 05:05:35;;;;;;;;;;;;;;;23.15;52.44;102221.97;2197156;39;115524;-53
2021/06/06 05:07:07;;;;;;;;;;;;;;;23.14;52.45;102225.91;2204831;39;115465;-53
2021/06/06 05:08:39;;;;;;;;;;;;;;;23.16;52.42;102225.63;2200141;39;115553;-53
2021/06/06 05:10:11;;;;;;;;;;;;;;;23.14;52.55;102225.91;2199802;39;115499;-53
2021/06/06 05:11:43;;;;;;;;;;;;;;;23.15;52.58;102224.78;2202051;39;115559;-53
2021/06/06 05:13:16;;;;;;;;;;;;;;;23.14;52.68;102227.91;2202595;39;115467;-52
2021/06/06 05:14:48;;;;;;;;;;;;;;;23.13;52.74;102235.50;2204772;39;113779;-54
2021/06/06 05:16:20;;;;;;;;;;;;;;;23.13;53.06;102237.47;2206264;39;113881;-54
2021/06/06 05:17:53;;;;;;;;;;;;;;;23.15;52.57;102233.25;2203048;39;114026;-53
2021/06/06 05:19:25;;;;;;;;;;;;;;;23.15;52.72;102223.94;2203304;39;114079;-53
2021/06/06 05:20:57;;;;;;;;;;;;;;;23.13;52.59;102232.69;2198342;39;114006;-53
2021/06/06 05:22:29;;;;;;;;;;;;;;;23.13;53.11;102229.88;2192850;39;113939;-53
2021/06/06 05:24:01;;;;;;;;;;;;;;;23.15;52.95;102229.59;2202022;39;114223;-53
2021/06/06 05:25:34;;;;;;;;;;;;;;;23.11;52.98;102228.50;2199428;39;113816;-53
2021/06/06 05:27:06;;;;;;;;;;;;;;;23.13;53.01;102232.69;2195007;39;113867;-53
2021/06/06 05:28:38;;;;;;;;;;;;;;;23.12;53.20;102231.03;2200715;39;113867;-53
2021/06/06 05:30:12;;;;;;;;;;;;;;;23.15;52.92;102236.06;2199332;39;114024;-54
2021/06/06 05:31:43;;;;;;;;;;;;;;;23.13;53.00;102229.88;2197306;39;114872;-53
2021/06/06 05:33:16;;;;;;;;;;;;;;;23.16;52.87;102234.09;2207444;39;115474;-53
2021/06/06 05:34:48;;;;;;;;;;;;;;;23.15;53.30;102233.25;2204891;39;114045;-53
2021/06/06 05:36:20;;;;;;;;;;;;;;;23.12;53.35;102235.81;2203374;39;114884;-54
2021/06/06 05:37:53;;;;;;;;;;;;;;;23.11;53.33;102234.97;2195217;39;114611;-53
2021/06/06 05:39:25;;;;;;;;;;;;;;;23.14;53.54;102242.00;2201157;39;114959;-53
2021/06/06 05:40:58;;;;;;;;;;;;;;;23.15;53.29;102236.06;2206118;39;115183;-53
2021/06/06 05:42:30;;;;;;;;;;;;;;;23.15;53.20;102244.53;2208543;39;115147;-53
2021/06/06 05:44:01;;;;;;;;;;;;;;;23.17;53.29;102253.50;2205340;39;114355;-53
2021/06/06 05:45:34;;;;;;;;;;;;;;;23.15;53.39;102249.31;2204208;39;115055;-54
2021/06/06 05:47:06;;;;;;;;;;;;;;;23.16;53.15;102246.22;2193625;39;114765;-53
2021/06/06 05:48:38;;;;;;;;;;;;;;;23.16;53.21;102246.22;2195859;39;114203;-54
2021/06/06 05:50:11;;;;;;;;;;;;;;;23.16;53.14;102245.38;2201386;39;114857;-53
2021/06/06 05:51:43;;;;;;;;;;;;;;;23.13;53.55;102243.13;2204047;39;116039;-53
2021/06/06 05:53:15;;;;;;;;;;;;;;;23.12;53.83;102247.94;2203197;39;114932;-53
2021/06/06 05:54:49;;;;;;;;;;;;;;;23.09;54.01;102254.16;2205448;39;114705;-54
2021/06/06 05:56:21;;;;;;;;;;;;;;;23.12;53.42;102247.94;2210253;39;114782;-53
2021/06/06 05:57:53;;;;;;;;;;;;;;;23.12;53.76;102247.94;2205675;39;115535;-53
2021/06/06 05:59:25;;;;;;;;;;;;;;;23.12;53.60;102255.56;2202883;39;115863;-53
2021/06/06 06:00:58;;;;;;;;;;;;;;;23.12;53.68;102252.75;2204224;39;115876;-53
2021/06/06 06:02:30;;;;;;;;;;;;;;;23.10;53.59;102250.22;2202298;39;114503;-53
2021/06/06 06:04:02;;;;;;;;;;;;;;;23.10;53.54;102249.34;2200097;39;115601;-52
2021/06/06 06:05:34;;;;;;;;;;;;;;;23.10;53.53;102247.38;2199922;39;115578;-54
2021/06/06 06:07:07;;;;;;;;;;;;;;;23.10;53.50;102250.22;2199802;39;115518;-53
2021/06/06 06:08:40;;;;;;;;;;;;;;;23.14;53.25;102253.28;2192489;39;116022;-53
2021/06/06 06:10:14;;;;;;;;;;;;;;;23.12;53.47;102247.94;2192851;39;115519;-54
2021/06/06 06:11:46;;;;;;;;;;;;;;;23.12;53.63;102247.94;2187453;39;115632;-53
2021/06/06 06:13:20;;;;;;;;;;;;;;;23.12;53.39;102250.75;2198095;39;115692;-53
2021/06/06 06:14:52;;;;;;;;;;;;;;;23.16;53.35;102248.19;2196503;39;115898;-53
2021/06/06 06:16:26;;;;;;;;;;;;;;;23.13;53.77;102248.75;2201920;39;116094;-53
2021/06/06 06:17:58;;;;;;;;;;;;;;;23.11;53.55;102249.06;2204020;39;115587;-53
2021/06/06 06:19:31;;;;;;;;;;;;;;;23.11;53.42;102246.25;2198755;39;115796;-53
2021/06/06 06:21:04;;;;;;;;;;;;;;;23.11;53.40;102243.44;2199860;39;114326;-54
2021/06/06 06:22:36;;;;;;;;;;;;;;;23.15;53.47;102250.16;2196119;39;114072;-53
2021/06/06 06:24:10;;;;;;;;;;;;;;;23.16;53.46;102254.69;2200220;39;114484;-52
2021/06/06 06:25:42;;;;;;;;;;;;;;;23.15;53.42;102250.16;2203207;39;114573;-53
2021/06/06 06:27:14;;;;;;;;;;;;;;;23.15;53.39;102254.97;2204502;39;113983;-53
2021/06/06 06:28:46;;;;;;;;;;;;;;;23.15;53.59;102250.16;2202599;39;113889;-53
2021/06/06 06:30:21;;;;;;;;;;;;;;;23.14;53.29;102256.94;2195895;39;114810;-53
2021/06/06 06:31:53;;;;;;;;;;;;;;;23.16;53.79;102249.03;2194835;39;113602;-52
2021/06/06 06:33:25;;;;;;;;;;;;;;;23.12;53.60;102250.75;2194682;39;114002;-53
2021/06/06 06:34:57;;;;;;;;;;;;;;;23.14;53.60;102251.28;2206477;39;113976;-55
2021/06/06 06:36:29;;;;;;;;;;;;;;;23.15;53.36;102261.44;2203973;39;114017;-53
2021/06/06 06:38:02;;;;;;;;;;;;;;;23.18;53.31;102248.72;2203384;39;113847;-53
2021/06/06 06:39:34;;;;;;;;;;;;;;;23.17;53.43;102249.88;2197987;39;113872;-52
2021/06/06 06:41:06;;;;;;;;;;;;;;;23.16;53.39;102254.69;2201310;39;113934;-54
2021/06/06 06:42:38;;;;;;;;;;;;;;;23.15;53.47;102258.63;2203185;39;114809;-53
2021/06/06 06:44:10;;;;;;;;;;;;;;;23.17;53.43;102256.34;2200437;39;114283;-53
2021/06/06 06:45:43;;;;;;;;;;;;;;;23.16;53.45;102249.03;2202438;39;114491;-53
2021/06/06 06:47:15;;;;;;;;;;;;;;;23.17;53.43;102253.50;2199034;39;114826;-53
2021/06/06 06:48:47;;;;;;;;;;;;;;;23.17;53.47;102258.34;2195315;39;114873;-53
2021/06/06 06:50:19;;;;;;;;;;;;;;;23.17;53.37;102252.69;2204460;39;114005;-52
2021/06/06 06:51:51;;;;;;;;;;;;;;;23.15;53.50;102258.63;2197042;39;114778;-53
2021/06/06 06:53:23;;;;;;;;;;;;;;;23.17;53.57;102256.34;2200517;39;114793;-53
2021/06/06 06:54:55;;;;;;;;;;;;;;;23.17;53.66;102261.16;2202091;39;114825;-53
2021/06/06 06:56:28;;;;;;;;;;;;;;;23.17;53.93;102261.16;2202581;39;114804;-53
2021/06/06 06:58:02;;;;;;;;;;;;;;;23.16;53.71;102256.66;2195581;39;114753;-53
2021/06/06 06:59:34;;;;;;;;;;;;;;;23.13;53.82;102255.25;2196046;39;113975;-53
2021/06/06 07:01:06;;;;;;;;;;;;;;;23.14;53.73;102256.94;2200431;39;114188;-53
2021/06/06 07:02:38;;;;;;;;;;;;;;;23.15;54.32;102247.34;2206982;39;113832;-53
2021/06/06 07:04:10;;;;;;;;;;;;;;;23.15;53.95;102250.16;2203069;39;114466;-53
2021/06/06 07:05:42;;;;;;;;;;;;;;;23.15;53.72;102258.63;2204500;39;116052;-53
2021/06/06 07:07:14;;;;;;;;;;;;;;;23.18;53.71;102257.19;2197873;39;115811;-53
2021/06/06 07:08:46;;;;;;;;;;;;;;;23.16;53.64;102260.31;2202506;39;115745;-53
2021/06/06 07:10:21;;;;;;;;;;;;;;;23.17;53.93;102261.97;2195383;39;114906;-54
2021/06/06 07:11:55;;;;;;;;;;;;;;;23.18;54.25;102260.84;2197560;39;114543;-54
2021/06/06 07:13:27;;;;;;;;;;;;;;;23.19;53.87;102259.72;2206897;39;116435;-53
2021/06/06 07:15:01;;;;;;;;;;;;;;;23.17;53.94;102266.81;2200871;39;116292;-53
2021/06/06 07:16:33;;;;;;;;;;;;;;;23.16;53.88;102265.09;2201206;39;115701;-54
2021/06/06 07:18:07;;;;;;;;;;;;;;;23.17;53.86;102261.97;2200704;39;114591;-54
2021/06/06 07:19:39;;;;;;;;;;;;;;;23.18;54.04;102269.31;2198099;39;115505;-53
2021/06/06 07:21:12;;;;;;;;;;;;;;;23.18;54.22;102266.47;2202619;39;115495;-53
2021/06/06 07:22:45;;;;;;;;;;;;;;;23.19;53.92;102267.34;2199276;39;114815;-52
2021/06/06 07:24:17;;;;;;;;;;;;;;;23.17;54.55;102269.63;2199077;39;115620;-53
2021/06/06 07:25:49;;;;;;;;;;;;;;;23.18;53.83;102265.63;2193575;39;113940;-53
2021/06/06 07:27:21;;;;;;;;;;;;;;;23.17;54.03;102270.44;2196906;39;113937;-54
2021/06/06 07:28:56;;;;;;;;;;;;;;;23.19;53.87;102256.06;2201286;39;113923;-53
2021/06/06 07:30:30;;;;;;;;;;;;;;;23.19;53.81;102264.50;2199644;39;113838;-53
2021/06/06 07:32:03;;;;;;;;;;;;;;;23.19;53.89;102261.69;2197955;39;113731;-53
2021/06/06 07:33:41;;;;;;;;;;;;;;;23.15;53.98;102264.25;2194838;39;113885;-53
2021/06/06 07:35:13;;;;;;;;;;;;;;;23.16;54.09;102265.09;2196395;39;113802;-53
2021/06/06 07:36:46;;;;;;;;;;;;;;;23.17;54.49;102269.63;2196284;39;113853;-53
2021/06/06 07:38:19;;;;;;;;;;;;;;;23.19;54.01;102270.16;2195760;39;113733;-53
2021/06/06 07:39:51;;;;;;;;;;;;;;;23.18;53.89;102269.31;2202131;39;113893;-54
2021/06/06 07:41:24;;;;;;;;;;;;;;;23.19;54.57;102271.00;2204826;39;113984;-53
2021/06/06 07:42:55;;;;;;;;;;;;;;;23.23;54.13;102279.69;2205025;39;113985;-53
2021/06/06 07:44:28;;;;;;;;;;;;;;;23.18;54.11;102272.13;2203681;39;114012;-54
2021/06/06 07:46:01;;;;;;;;;;;;;;;23.16;54.56;102270.75;2202037;39;115550;-53
2021/06/06 07:47:33;;;;;;;;;;;;;;;23.18;53.99;102269.31;2200750;39;113617;-53
2021/06/06 07:49:05;;;;;;;;;;;;;;;23.19;53.86;102265.34;2201152;39;114759;-53
2021/06/06 07:50:39;;;;;;;;;;;;;;;23.18;53.95;102266.47;2203241;39;115308;-54
2021/06/06 07:52:11;;;;;;;;;;;;;;;23.18;54.11;102265.63;2198178;39;114449;-53